Time;durP1;ratioP1;P1;durP2;ratioP2;P2;SDS_P1;SDS_P2;PMS_P1;PMS_P2;Temp;Humidity;BMP_temperature;BMP_pressure;BME280_temperature;BME280_humidity;BME280_pressure;Samples;Min_cycle;Max_cycle;Signal;HPM_P1;HPM_P2
2023/01/31 00:01:39;;;;;;;22.85;3.97;;;4.20;99.90;;;-144.05;74.59;125687.94;5055211;28;20029;-78
2023/01/31 00:04:11;;;;;;;33.28;5.57;;;4.20;99.90;;;-144.05;74.37;125687.94;5055286;28;20044;-78
2023/01/31 00:06:42;;;;;;;25.67;4.82;;;4.20;99.90;;;-144.05;74.62;125687.94;5037171;28;20116;-78
2023/01/31 00:09:11;;;;;;;24.88;5.20;;;4.20;99.90;;;-144.05;74.58;125687.94;5055128;28;20029;-76
2023/01/31 00:11:38;;;;;;;28.55;6.05;;;4.20;99.90;;;-144.05;74.95;125687.94;5055581;28;20036;-78
2023/01/31 00:14:06;;;;;;;22.40;5.38;;;4.20;99.90;;;-144.05;74.73;125687.94;5036688;28;20127;-77
2023/01/31 00:16:34;;;;;;;20.88;4.93;;;4.10;99.90;;;-144.05;75.08;125687.94;5036910;28;20120;-78
2023/01/31 00:18:59;;;;;;;26.08;4.88;;;4.10;99.90;;;-144.05;75.05;125687.94;5036333;28;20040;-77
2023/01/31 00:21:29;;;;;;;27.30;5.97;;;3.90;99.90;;;-144.05;74.85;125687.94;5054541;28;20094;-78
2023/01/31 00:23:57;;;;;;;28.42;5.35;;;3.90;99.90;;;-144.05;75.25;125687.94;5054884;28;20469;-77
2023/01/31 00:26:28;;;;;;;27.05;5.30;;;3.80;99.90;;;-144.05;75.54;125687.94;5054731;28;20040;-76
2023/01/31 00:28:58;;;;;;;36.45;7.15;;;3.70;99.90;;;-144.05;75.73;125687.94;5054024;28;20100;-76
2023/01/31 00:31:27;;;;;;;27.73;5.10;;;3.70;99.90;;;-144.05;76.03;125687.94;5055069;28;20112;-80
2023/01/31 00:33:55;;;;;;;22.48;5.55;;;3.70;99.90;;;-144.05;76.14;125687.94;5054662;28;20021;-77
2023/01/31 00:36:29;;;;;;;36.72;6.78;;;3.60;99.90;;;-144.05;76.19;125687.94;5054726;28;20080;-77
2023/01/31 00:38:59;;;;;;;29.55;5.57;;;3.60;99.90;;;-144.05;76.92;125687.94;5035985;28;20091;-78
2023/01/31 00:41:29;;;;;;;24.60;5.57;;;3.70;99.90;;;-144.05;76.96;125687.94;5054542;28;20063;-77
2023/01/31 00:43:56;;;;;;;36.05;5.68;;;3.70;99.90;;;-144.05;76.96;125687.94;5054193;28;20021;-78
2023/01/31 00:46:22;;;;;;;22.33;5.20;;;3.70;99.90;;;-144.05;76.93;125687.94;5054756;28;20098;-80
2023/01/31 00:48:49;;;;;;;21.50;3.92;;;3.90;99.90;;;-144.05;76.67;125687.94;5054230;28;20542;-78
2023/01/31 00:51:16;;;;;;;23.15;4.53;;;3.90;99.90;;;-144.05;76.69;125687.94;5036721;28;20083;-76
2023/01/31 00:53:42;;;;;;;31.25;4.90;;;3.90;99.90;;;-144.05;76.52;125687.94;5053890;28;20139;-77
2023/01/31 00:56:17;;;;;;;27.63;5.13;;;4.00;99.90;;;-144.05;76.02;125687.94;5036061;28;20055;-77
2023/01/31 00:58:43;;;;;;;28.35;4.53;;;4.00;99.90;;;-144.05;76.19;125687.94;5053541;28;20036;-77
2023/01/31 01:01:28;;;;;;;27.27;5.28;;;4.00;99.90;;;-144.05;76.66;125687.94;5054033;28;20033;-77
2023/01/31 01:03:57;;;;;;;22.77;4.38;;;4.10;99.90;;;-144.05;75.75;125687.94;5053519;28;20434;-77
2023/01/31 01:06:24;;;;;;;27.13;4.65;;;4.10;99.90;;;-144.05;75.58;125687.94;5054075;28;20040;-77
2023/01/31 01:08:51;;;;;;;24.90;4.80;;;4.10;99.90;;;-144.05;75.06;125687.94;5053766;28;20419;-78
2023/01/31 01:11:27;;;;;;;23.17;4.78;;;4.10;99.90;;;-144.05;75.68;125687.94;5054466;28;20032;-77
2023/01/31 01:13:53;;;;;;;23.35;4.15;;;4.10;99.90;;;-144.05;75.56;125687.94;5036014;28;20136;-78
2023/01/31 01:16:26;;;;;;;19.73;4.20;;;4.10;99.90;;;-144.05;75.20;125687.94;5035990;28;20455;-77
2023/01/31 01:18:53;;;;;;;21.25;4.95;;;4.20;99.90;;;-144.05;74.69;125687.94;5036403;28;20029;-78
2023/01/31 01:21:31;;;;;;;23.23;5.35;;;4.10;99.90;;;-144.05;74.91;125687.94;5037582;28;20166;-75
2023/01/31 01:24:01;;;;;;;28.38;5.28;;;4.10;99.90;;;-144.05;74.48;125687.94;5036034;28;20055;-77
2023/01/31 01:26:31;;;;;;;20.77;4.82;;;4.10;99.90;;;-144.05;74.77;125687.94;5054708;28;20128;-78
2023/01/31 01:29:01;;;;;;;20.05;4.90;;;4.10;99.90;;;-144.05;74.66;125687.94;5053531;28;20046;-76
2023/01/31 01:31:31;;;;;;;21.70;4.53;;;4.10;99.90;;;-144.05;74.69;125687.94;5053668;28;20108;-78
2023/01/31 01:34:12;;;;;;;29.75;5.68;;;4.20;99.90;;;-144.05;74.89;125687.94;5037062;28;20025;-79
2023/01/31 01:36:38;;;;;;;21.90;4.55;;;4.20;99.90;;;-144.05;74.79;125687.94;5054869;28;20263;-78
2023/01/31 01:39:09;;;;;;;28.90;5.85;;;4.20;99.90;;;-144.05;74.69;125687.94;5035804;28;20039;-78
2023/01/31 01:41:37;;;;;;;25.63;5.25;;;4.20;99.90;;;-144.05;74.68;125687.94;5035992;28;20036;-77
2023/01/31 01:44:49;;;;;;;25.35;4.72;;;4.20;99.90;;;-144.05;74.91;125687.94;5054334;28;20334;-75
2023/01/31 01:47:54;;;;;;;23.98;6.50;;;4.10;99.90;;;-144.05;74.73;125687.94;5054265;28;20032;-77
2023/01/31 01:50:47;;;;;;;27.88;4.68;;;3.90;99.90;;;-144.05;75.09;125687.94;5053312;28;20035;-79
2023/01/31 01:53:21;;;;;;;25.00;5.85;;;3.90;99.90;;;-144.05;75.55;125687.94;5054885;28;20032;-78
2023/01/31 01:56:01;;;;;;;22.83;5.18;;;3.80;99.90;;;-144.05;75.66;125687.94;5053700;28;20052;-77
2023/01/31 01:59:14;;;;;;;27.17;5.38;;;3.70;99.90;;;-144.05;75.52;125687.94;5054447;28;20076;-77
2023/01/31 02:01:40;;;;;;;32.70;5.03;;;3.70;99.90;;;-144.05;76.13;125687.94;4973213;28;20031;-78
2023/01/31 02:04:17;;;;;;;25.92;5.13;;;3.70;99.90;;;-144.05;75.77;125687.94;5043143;28;20091;-78
2023/01/31 02:06:46;;;;;;;28.08;5.15;;;3.60;99.90;;;-144.05;75.75;125687.94;5053313;28;20039;-78
2023/01/31 02:09:43;;;;;;;41.53;5.00;;;3.60;99.90;;;-144.05;76.29;125687.94;5034806;28;20029;-78
2023/01/31 02:12:11;;;;;;;18.85;4.43;;;3.60;99.90;;;-144.05;75.95;125687.94;5052683;28;20120;-76
2023/01/31 02:14:37;;;;;;;24.08;4.88;;;3.70;99.90;;;-144.05;76.05;125687.94;5052732;28;20086;-78
2023/01/31 02:17:03;;;;;;;24.00;6.00;;;3.70;99.90;;;-144.05;75.18;125687.94;5052359;28;20041;-77
2023/01/31 02:20:11;;;;;;;32.25;5.00;;;3.80;99.90;;;-144.05;75.37;125687.94;5034225;28;20441;-78
2023/01/31 02:22:58;;;;;;;24.15;4.60;;;3.80;99.90;;;-144.05;74.71;125687.94;5034730;28;20045;-78
2023/01/31 02:26:18;;;;;;;31.20;5.05;;;3.90;99.90;;;-144.05;74.59;125687.94;5052555;28;20381;-78
2023/01/31 02:29:32;;;;;;;21.90;5.90;;;3.90;99.90;;;-144.05;74.16;125687.94;5052369;28;20027;-77
2023/01/31 02:32:29;;;;;;;27.30;4.80;;;4.00;99.90;;;-144.05;73.94;125687.94;5034960;28;20025;-77
2023/01/31 02:35:41;;;;;;;16.63;4.43;;;4.00;99.90;;;-144.05;73.69;125687.94;5052352;28;20024;-80
2023/01/31 02:38:24;;;;;;;24.08;4.40;;;4.00;99.90;;;-144.05;73.57;125687.94;5052659;28;20116;-78
2023/01/31 02:41:25;;;;;;;28.17;5.10;;;3.90;99.90;;;-144.05;73.67;125687.94;5052429;28;20037;-78
2023/01/31 02:47:16;;;;;;;28.00;3.95;;;3.90;99.90;;;-144.05;73.63;125687.94;5052326;28;20040;-77
2023/01/31 02:50:10;;;;;;;16.30;3.63;;;3.90;99.90;;;-144.05;73.17;125687.94;5033619;28;20040;-77
2023/01/31 02:52:58;;;;;;;21.90;4.15;;;3.90;99.90;;;-144.05;72.82;125687.94;5052232;28;20025;-78
2023/01/31 02:56:13;;;;;;;19.55;4.10;;;3.80;99.90;;;-144.05;73.73;125687.94;5051742;28;20032;-77
2023/01/31 02:58:47;;;;;;;18.17;4.30;;;3.80;99.90;;;-144.05;73.74;125687.94;5033430;28;20202;-76
2023/01/31 03:01:23;;;;;;;24.15;3.85;;;3.80;99.90;;;-144.05;73.76;125687.94;5052770;28;20488;-77
2023/01/31 03:03:51;;;;;;;19.27;4.40;;;3.90;99.90;;;-144.05;73.03;125687.94;5038146;28;20040;-76
2023/01/31 03:06:22;;;;;;;22.25;4.88;;;3.80;99.90;;;-144.05;73.05;125687.94;5055828;28;20039;-78
2023/01/31 03:09:03;;;;;;;22.20;3.38;;;3.80;99.90;;;-144.05;72.90;125687.94;5056231;28;20025;-78
2023/01/31 03:12:07;;;;;;;12.80;4.32;;;3.80;99.90;;;-144.05;72.98;125687.94;5037889;28;20119;-76
2023/01/31 03:15:06;;;;;;;21.30;3.83;;;3.80;99.90;;;-144.05;73.10;125687.94;5035136;28;20064;-77
2023/01/31 03:18:00;;;;;;;23.45;4.25;;;3.80;99.90;;;-144.05;73.33;125687.94;5055427;28;20107;-77
2023/01/31 03:20:37;;;;;;;16.58;3.65;;;3.80;99.90;;;-144.05;73.06;125687.94;5055781;28;20051;-78
2023/01/31 03:23:16;;;;;;;16.77;3.65;;;3.90;99.90;;;-144.05;73.30;125687.94;5038077;28;20040;-78
2023/01/31 03:25:48;;;;;;;18.85;4.45;;;3.90;99.90;;;-144.05;73.08;125687.94;5056097;28;20575;-78
2023/01/31 03:28:24;;;;;;;27.83;4.80;;;3.90;99.90;;;-144.05;73.79;125687.94;5038081;28;20048;-78
2023/01/31 03:31:28;;;;;;;24.17;4.30;;;3.90;99.90;;;-144.05;73.37;125687.94;5055990;28;20032;-76
2023/01/31 03:34:02;;;;;;;23.05;3.85;;;3.90;99.90;;;-144.05;73.15;125687.94;5055970;28;20032;-78
2023/01/31 03:37:02;;;;;;;19.55;4.82;;;3.90;99.90;;;-144.05;73.32;125687.94;5055975;28;20152;-79
2023/01/31 03:39:49;;;;;;;25.52;4.85;;;3.90;99.90;;;-144.05;73.54;125687.94;5055199;28;20032;-75
2023/01/31 03:43:00;;;;;;;17.77;4.55;;;3.90;99.90;;;-144.05;73.83;125687.94;5056019;28;20104;-78
2023/01/31 03:46:15;;;;;;;26.02;4.38;;;3.80;99.90;;;-144.05;74.38;125687.94;5055295;28;20029;-77
2023/01/31 03:48:48;;;;;;;17.10;4.70;;;3.80;99.90;;;-144.05;73.75;125687.94;4973165;28;20508;-76
2023/01/31 03:51:27;;;;;;;15.52;4.75;;;3.90;99.90;;;-144.05;74.04;125687.94;5048299;28;20052;-77
2023/01/31 03:54:16;;;;;;;19.27;4.32;;;3.90;99.90;;;-144.05;73.91;125687.94;5038519;28;20031;-78
2023/01/31 03:57:03;;;;;;;16.33;3.58;;;4.00;99.90;;;-144.05;73.87;125687.94;5056623;28;20507;-78
2023/01/31 03:59:38;;;;;;;16.10;3.70;;;4.00;99.90;;;-144.05;73.60;125687.94;5054625;28;20078;-77
2023/01/31 04:02:11;;;;;;;21.33;4.30;;;4.10;99.90;;;-144.05;73.37;125687.94;5056424;28;20041;-78
2023/01/31 04:04:52;;;;;;;16.33;4.25;;;4.10;99.90;;;-144.05;73.60;125687.94;5055772;28;20373;-77
2023/01/31 04:07:19;;;;;;;19.38;3.75;;;4.10;99.90;;;-144.05;73.59;125687.94;5054543;28;20021;-76
2023/01/31 04:09:45;;;;;;;23.30;4.18;;;4.10;99.90;;;-144.05;73.58;125687.94;5037846;28;20151;-76
2023/01/31 04:12:14;;;;;;;22.67;4.25;;;4.20;99.90;;;-144.05;73.10;125687.94;5055183;28;20143;-77
2023/01/31 04:14:41;;;;;;;17.98;4.05;;;4.20;99.90;;;-144.05;73.19;125687.94;5038006;28;20061;-79
2023/01/31 04:17:07;;;;;;;17.20;3.63;;;4.20;99.90;;;-144.05;72.90;125687.94;5055835;28;20384;-77
2023/01/31 04:19:33;;;;;;;19.55;4.28;;;4.20;99.90;;;-144.05;72.73;125687.94;5054422;28;20028;-78
2023/01/31 04:21:59;;;;;;;19.80;3.92;;;4.20;99.90;;;-144.05;72.67;125687.94;5054548;28;20126;-76
2023/01/31 04:24:25;;;;;;;19.80;3.67;;;4.20;99.90;;;-144.05;72.63;125687.94;5054752;28;20108;-80
2023/01/31 04:26:51;;;;;;;17.23;4.80;;;4.20;99.90;;;-144.05;72.54;125687.94;5055509;28;20341;-75
2023/01/31 04:29:17;;;;;;;22.20;3.47;;;4.20;99.90;;;-144.05;72.48;125687.94;5054424;28;20025;-76
2023/01/31 04:31:42;;;;;;;24.48;3.65;;;4.20;99.90;;;-144.05;72.37;125687.94;5055468;28;20028;-79
2023/01/31 04:34:08;;;;;;;16.83;3.90;;;4.20;99.90;;;-144.05;72.22;125687.94;5055676;28;20048;-78
2023/01/31 04:36:34;;;;;;;15.88;3.63;;;4.10;99.90;;;-144.05;72.76;125687.94;5037222;28;20203;-78
2023/01/31 04:39:00;;;;;;;26.45;4.22;;;4.10;99.90;;;-144.05;72.84;125687.94;5037002;28;20029;-79
2023/01/31 04:41:26;;;;;;;24.52;4.03;;;4.10;99.90;;;-144.05;73.36;125687.94;5055710;28;20082;-78
2023/01/31 04:43:52;;;;;;;20.55;3.67;;;4.10;99.90;;;-144.05;73.53;125687.94;5055858;28;20384;-78
2023/01/31 04:46:18;;;;;;;20.20;3.80;;;4.20;99.90;;;-144.05;72.70;125687.94;5056154;28;20112;-78
2023/01/31 04:48:44;;;;;;;19.65;5.47;;;4.30;99.90;;;-144.05;72.70;125687.94;5055884;28;20112;-79
2023/01/31 04:51:10;;;;;;;18.73;4.70;;;4.30;99.90;;;-144.05;72.73;125687.94;5038363;28;20029;-78
2023/01/31 04:53:36;;;;;;;17.90;3.80;;;4.30;99.90;;;-144.05;72.78;125687.94;5056315;28;20028;-78
2023/01/31 04:56:04;;;;;;;24.02;4.55;;;4.30;99.90;;;-144.05;73.06;125687.94;5038129;28;20503;-78
2023/01/31 04:58:30;;;;;;;25.85;4.32;;;4.30;99.90;;;-144.05;73.20;125687.94;5055766;28;20518;-79
2023/01/31 05:00:56;;;;;;;19.65;4.80;;;4.30;99.90;;;-144.05;72.86;125687.94;5055455;28;20079;-78
2023/01/31 05:03:22;;;;;;;25.88;5.53;;;4.30;99.90;;;-144.05;73.05;125687.94;5038543;28;20521;-78
2023/01/31 05:05:50;;;;;;;26.58;5.00;;;4.20;99.90;;;-144.05;73.92;125687.94;5055529;28;20487;-79
2023/01/31 05:08:16;;;;;;;18.30;4.80;;;4.20;99.90;;;-144.05;73.58;125687.94;5055309;28;20203;-79
2023/01/31 05:10:42;;;;;;;18.85;3.97;;;4.20;99.90;;;-144.05;73.53;125687.94;5055517;28;20046;-78
2023/01/31 05:13:10;;;;;;;22.63;5.10;;;4.10;99.90;;;-144.05;73.97;125687.94;5038269;28;20017;-79
2023/01/31 05:15:37;;;;;;;26.60;4.22;;;4.00;99.90;;;-144.05;74.44;125687.94;5048078;28;20029;-77
2023/01/31 05:18:03;;;;;;;17.90;4.85;;;4.00;99.90;;;-144.05;74.48;125687.94;5074975;28;20028;-78
2023/01/31 05:20:37;;;;;;;23.38;5.43;;;4.10;99.90;;;-144.05;74.79;125687.94;5073128;28;20108;-77
2023/01/31 05:23:03;;;;;;;23.33;4.78;;;4.10;99.90;;;-144.05;74.85;125687.94;5073257;28;20025;-79
2023/01/31 05:25:29;;;;;;;21.50;5.43;;;4.10;99.90;;;-144.05;75.05;125687.94;5072249;28;20025;-78
2023/01/31 05:27:56;;;;;;;24.85;5.85;;;4.20;99.90;;;-144.05;75.18;125687.94;5071560;28;20037;-78
2023/01/31 05:30:25;;;;;;;19.10;4.40;;;4.20;99.90;;;-144.05;74.91;125687.94;5055166;28;20029;-77
2023/01/31 05:32:51;;;;;;;19.92;5.65;;;4.20;99.90;;;-144.05;75.21;125687.94;5054043;28;20023;-78
2023/01/31 05:35:18;;;;;;;25.45;5.15;;;4.20;99.90;;;-144.05;75.01;125687.94;5036011;28;20025;-77
2023/01/31 05:37:44;;;;;;;23.10;4.97;;;4.30;99.90;;;-144.05;74.75;125687.94;5054155;28;20037;-77
2023/01/31 05:40:16;;;;;;;30.15;5.65;;;4.30;99.90;;;-144.05;74.85;125687.94;5053486;28;20316;-77
2023/01/31 05:42:43;;;;;;;25.80;6.25;;;4.30;99.90;;;-144.05;75.22;125687.94;5035989;28;20029;-76
2023/01/31 05:45:11;;;;;;;28.35;6.82;;;4.30;99.90;;;-144.05;74.71;125687.94;5053923;28;20033;-78
2023/01/31 05:47:37;;;;;;;28.42;6.75;;;4.30;99.90;;;-144.05;75.35;125687.94;5036014;28;20051;-77
2023/01/31 05:50:04;;;;;;;29.13;6.10;;;4.20;99.90;;;-144.05;75.20;125687.94;5035237;28;20086;-76
2023/01/31 05:52:29;;;;;;;22.48;5.53;;;4.30;99.90;;;-144.05;75.00;125687.94;5053638;28;20044;-77
2023/01/31 05:54:55;;;;;;;25.75;6.25;;;4.30;99.90;;;-144.05;74.90;125687.94;5054041;28;20025;-76
2023/01/31 05:57:21;;;;;;;29.80;6.68;;;4.30;99.90;;;-144.05;75.40;125687.94;5053875;28;20025;-76
2023/01/31 05:59:47;;;;;;;26.67;6.18;;;4.30;99.90;;;-144.05;75.08;125687.94;5053834;28;20090;-78
2023/01/31 06:02:13;;;;;;;28.48;5.35;;;4.30;99.90;;;-144.05;74.85;125687.94;5053851;28;20053;-80
2023/01/31 06:04:39;;;;;;;26.10;6.45;;;4.30;99.90;;;-144.05;75.18;125687.94;5053475;28;20150;-78
2023/01/31 06:07:04;;;;;;;26.20;5.47;;;4.30;99.90;;;-144.05;74.81;125687.94;5053925;28;20071;-79
2023/01/31 06:09:30;;;;;;;24.02;6.35;;;4.30;99.90;;;-144.05;75.41;125687.94;5053735;28;20115;-78
2023/01/31 06:11:56;;;;;;;29.33;7.20;;;4.30;99.90;;;-144.05;75.20;125687.94;5036375;28;20131;-77
2023/01/31 06:14:22;;;;;;;26.83;6.18;;;4.30;99.90;;;-144.05;75.35;125687.94;5036144;28;20061;-79
2023/01/31 06:16:48;;;;;;;28.13;7.68;;;4.30;99.90;;;-144.05;74.90;125687.94;5063091;28;20492;-78
2023/01/31 06:19:14;;;;;;;22.92;6.53;;;4.30;99.90;;;-144.05;74.73;125687.94;5053990;28;20034;-78
2023/01/31 06:21:40;;;;;;;29.95;6.50;;;4.40;99.90;;;-144.05;74.07;125687.94;5037582;28;20593;-77
2023/01/31 06:24:06;;;;;;;25.40;6.43;;;4.40;99.90;;;-144.05;74.26;125687.94;5055482;28;20041;-80
2023/01/31 06:26:32;;;;;;;24.90;6.43;;;4.30;99.90;;;-144.05;74.17;125687.94;5056814;28;20100;-79
2023/01/31 06:28:58;;;;;;;26.35;6.10;;;4.40;99.90;;;-144.05;74.21;125687.94;5055575;28;20025;-80
2023/01/31 06:31:24;;;;;;;29.38;6.65;;;4.40;99.90;;;-144.05;73.63;125687.94;5055142;28;20032;-76
2023/01/31 06:33:50;;;;;;;25.58;6.22;;;4.40;99.90;;;-144.05;73.23;125687.94;5055587;28;20052;-80
2023/01/31 06:36:16;;;;;;;20.83;5.85;;;4.40;99.90;;;-144.05;73.02;125687.94;5054078;28;20112;-79
2023/01/31 06:38:42;;;;;;;21.00;5.93;;;4.40;99.90;;;-144.05;72.62;125687.94;5052532;28;20045;-78
2023/01/31 06:41:08;;;;;;;26.83;6.72;;;4.40;99.90;;;-144.05;72.83;125687.94;5060714;28;20167;-80
2023/01/31 06:43:34;;;;;;;21.20;6.40;;;4.40;99.90;;;-144.05;72.54;125687.94;5027610;28;20024;-78
2023/01/31 06:45:59;;;;;;;22.15;6.15;;;4.50;99.90;;;-144.05;72.21;125687.94;5062160;28;20075;-78
2023/01/31 06:48:25;;;;;;;23.70;6.38;;;4.50;99.90;;;-144.05;72.26;125687.94;5063708;28;20412;-78
2023/01/31 06:50:51;;;;;;;24.17;6.40;;;4.50;99.90;;;-144.05;71.90;125687.94;5060902;28;20032;-77
2023/01/31 06:53:17;;;;;;;20.83;6.60;;;4.60;99.90;;;-144.05;71.75;125687.94;5061425;28;20442;-80
2023/01/31 06:55:43;;;;;;;27.92;6.28;;;4.60;99.90;;;-144.05;71.10;125687.94;5063818;28;20053;-78
2023/01/31 06:58:08;;;;;;;25.35;5.95;;;4.70;99.90;;;-144.05;70.88;125687.94;5044589;28;20589;-79
2023/01/31 07:00:34;;;;;;;28.20;6.93;;;4.90;99.90;;;-144.05;70.61;125687.94;5063880;28;20312;-76
2023/01/31 07:03:00;;;;;;;20.65;6.00;;;4.90;99.90;;;-144.05;70.37;125687.94;5063999;28;20040;-78
2023/01/31 07:05:27;;;;;;;22.45;5.90;;;5.00;99.90;;;-144.05;70.60;125687.94;5061732;28;20500;-80
2023/01/31 07:07:53;;;;;;;19.58;5.35;;;5.10;99.90;;;-144.05;70.51;125687.94;5063327;28;20547;-80
2023/01/31 07:10:19;;;;;;;28.48;5.97;;;5.20;99.90;;;-144.05;69.90;125687.94;5028436;28;20152;-79
2023/01/31 07:12:45;;;;;;;26.98;5.85;;;5.20;99.90;;;-144.05;70.00;125687.94;5062181;28;20158;-79
2023/01/31 07:15:11;;;;;;;26.42;7.00;;;5.20;99.90;;;-144.05;70.05;125687.94;5029639;28;20166;-80
2023/01/31 07:17:37;;;;;;;29.58;6.25;;;5.10;99.90;;;-144.05;69.95;125687.94;5054194;28;20025;-80
2023/01/31 07:20:04;;;;;;;31.25;6.85;;;5.10;99.90;;;-144.05;70.65;125687.94;5036106;28;20036;-80
2023/01/31 07:22:29;;;;;;;16.00;5.45;;;5.00;99.90;;;-144.05;70.68;125687.94;5036372;28;20036;-82
2023/01/31 07:24:55;;;;;;;26.67;7.22;;;5.00;99.90;;;-144.05;70.64;125687.94;5054145;28;20033;-82
2023/01/31 07:27:22;;;;;;;20.67;7.20;;;5.00;99.90;;;-144.05;70.76;125687.94;5054142;28;20048;-80
2023/01/31 07:29:47;;;;;;;32.03;8.23;;;5.00;99.90;;;-144.05;71.33;125687.94;5054044;28;20384;-79
2023/01/31 07:32:13;;;;;;;22.52;6.50;;;4.90;99.90;;;-144.05;71.00;125687.94;5054867;28;20032;-79
2023/01/31 07:34:39;;;;;;;25.73;7.03;;;4.90;99.90;;;-144.05;71.40;125687.94;5054328;28;20087;-80
2023/01/31 07:37:05;;;;;;;27.55;7.65;;;5.00;99.90;;;-144.05;71.48;125687.94;5036082;28;20024;-80
2023/01/31 07:39:31;;;;;;;24.52;7.47;;;4.90;99.90;;;-144.05;71.74;125687.94;5054160;28;20029;-80
2023/01/31 07:41:56;;;;;;;24.98;6.82;;;4.90;99.90;;;-144.05;71.16;125687.94;5053797;28;20118;-78
2023/01/31 07:44:22;;;;;;;33.10;7.70;;;4.90;99.90;;;-144.05;71.46;125687.94;5054033;28;20030;-79
2023/01/31 07:46:49;;;;;;;29.48;8.23;;;5.00;99.90;;;-144.05;71.45;125687.94;5036701;28;20109;-77
2023/01/31 07:49:15;;;;;;;33.42;8.35;;;5.00;99.90;;;-144.05;71.17;125687.94;5057919;28;20029;-78
2023/01/31 07:51:41;;;;;;;25.15;6.93;;;5.00;99.90;;;-144.05;71.64;125687.94;5057982;28;20080;-77
2023/01/31 07:54:10;;;;;;;28.90;8.02;;;5.00;99.90;;;-144.05;71.38;125687.94;5058060;28;20547;-80
2023/01/31 07:56:37;;;;;;;33.28;8.18;;;5.00;99.90;;;-144.05;71.77;125687.94;5057203;28;20025;-78
2023/01/31 07:59:03;;;;;;;30.95;7.82;;;5.00;99.90;;;-144.05;71.57;125687.94;5057188;28;20032;-78
2023/01/31 08:04:16;;;;;;;28.80;6.70;;;5.00;99.90;;;-144.05;71.30;125687.94;5056860;28;20467;-80
2023/01/31 08:06:45;;;;;;;23.52;6.60;;;5.00;99.90;;;-144.05;71.42;125687.94;5039603;28;20044;-79
2023/01/31 08:09:11;;;;;;;26.48;7.22;;;5.00;99.90;;;-144.05;70.91;125687.94;5056711;28;20049;-79
2023/01/31 08:11:37;;;;;;;23.45;7.05;;;5.00;99.90;;;-144.05;71.03;125687.94;5057086;28;20025;-78
2023/01/31 08:14:03;;;;;;;20.35;6.30;;;5.10;99.90;;;-144.05;70.86;125687.94;5057190;28;20092;-79
2023/01/31 08:16:30;;;;;;;28.13;6.68;;;5.10;99.90;;;-144.05;70.51;125687.94;5057015;28;20025;-79
2023/01/31 08:18:56;;;;;;;26.02;6.25;;;5.20;99.90;;;-144.05;70.49;125687.94;5057367;28;20392;-80
2023/01/31 08:21:22;;;;;;;23.63;6.03;;;5.20;99.90;;;-144.05;70.56;125687.94;5057133;28;20025;-78
2023/01/31 08:23:49;;;;;;;23.55;5.90;;;5.20;99.90;;;-144.05;70.58;125687.94;5039914;28;20031;-79
2023/01/31 08:26:20;;;;;;;23.38;6.70;;;5.20;99.90;;;-144.05;70.32;125687.94;5040909;28;20021;-80
2023/01/31 08:28:49;;;;;;;25.25;6.82;;;5.20;99.90;;;-144.05;70.32;125687.94;5058589;28;20025;-76
2023/01/31 08:31:23;;;;;;;15.65;5.60;;;5.20;99.90;;;-144.05;70.12;125687.94;5039916;28;20460;-79
2023/01/31 08:33:51;;;;;;;25.05;6.45;;;5.20;99.90;;;-144.05;70.48;125687.94;5056943;28;20025;-78
2023/01/31 08:36:30;;;;;;;27.20;5.93;;;5.30;99.90;;;-144.05;70.76;125687.94;5056556;28;20029;-80
2023/01/31 08:38:57;;;;;;;16.50;5.40;;;5.30;99.90;;;-144.05;70.44;125687.94;5038580;28;20036;-78
2023/01/31 08:41:25;;;;;;;25.17;5.70;;;5.30;99.90;;;-144.05;70.55;125687.94;5038978;28;20160;-80
2023/01/31 08:43:53;;;;;;;21.27;6.20;;;5.30;99.90;;;-144.05;70.84;125687.94;5057229;28;20037;-79
2023/01/31 08:46:19;;;;;;;26.70;6.95;;;5.30;99.90;;;-144.05;70.68;125687.94;5038205;28;20029;-79
2023/01/31 08:48:44;;;;;;;19.27;6.30;;;5.30;99.90;;;-144.05;71.69;125687.94;5056151;28;20031;-80
2023/01/31 08:51:13;;;;;;;22.25;6.25;;;5.30;99.90;;;-144.05;72.39;125687.94;5056085;28;20033;-78
2023/01/31 08:53:45;;;;;;;17.67;4.93;;;5.30;99.90;;;-144.05;73.29;125687.94;5038773;28;20120;-78
2023/01/31 08:56:12;;;;;;;28.40;4.90;;;5.20;99.90;;;-144.05;73.22;125687.94;5057474;28;20029;-78
2023/01/31 08:58:42;;;;;;;23.23;6.15;;;5.20;99.90;;;-144.05;74.50;125687.94;5056764;28;20162;-80
2023/01/31 09:01:16;;;;;;;21.58;5.10;;;5.10;99.90;;;-144.05;75.39;125687.94;5056707;28;20040;-79
2023/01/31 09:03:44;;;;;;;22.42;5.38;;;5.00;99.90;;;-144.05;76.39;125687.94;5057634;28;20032;-79
2023/01/31 09:06:21;;;;;;;18.67;4.97;;;4.90;99.90;;;-144.05;76.20;125687.94;5056781;28;20021;-80
2023/01/31 09:08:47;;;;;;;23.60;5.70;;;4.90;99.90;;;-144.05;75.82;125687.94;5038427;28;20052;-78
2023/01/31 09:11:18;;;;;;;17.63;4.68;;;4.80;99.90;;;-144.05;76.76;125687.94;5039297;28;20033;-79
2023/01/31 09:13:50;;;;;;;20.58;4.95;;;4.80;99.90;;;-144.05;77.48;125687.94;5039210;28;20032;-78
2023/01/31 09:16:16;;;;;;;22.77;5.38;;;4.80;99.90;;;-144.05;77.69;125687.94;5055474;28;20050;-79
2023/01/31 09:18:42;;;;;;;18.50;5.15;;;4.80;99.90;;;-144.05;78.15;125687.94;5037125;28;20029;-77
2023/01/31 09:21:17;;;;;;;27.30;5.45;;;4.80;99.90;;;-144.05;78.03;125687.94;5056669;28;20025;-79
2023/01/31 09:23:44;;;;;;;25.67;5.00;;;4.80;99.90;;;-144.05;77.53;125687.94;5055905;28;20059;-78
2023/01/31 09:26:13;;;;;;;19.58;6.07;;;4.90;99.90;;;-144.05;77.91;125687.94;5037875;28;20037;-78
2023/01/31 09:28:42;;;;;;;17.73;5.57;;;4.90;99.90;;;-144.05;77.88;125687.94;5037622;28;20029;-80
2023/01/31 09:31:15;;;;;;;23.17;5.25;;;4.90;99.90;;;-144.05;78.06;125687.94;5037679;28;20412;-79
2023/01/31 09:33:42;;;;;;;21.40;5.50;;;4.90;99.90;;;-144.05;77.60;125687.94;5055865;28;20029;-78
2023/01/31 09:36:14;;;;;;;18.98;4.57;;;5.00;99.90;;;-144.05;77.45;125687.94;5036900;28;20052;-78
2023/01/31 09:38:40;;;;;;;18.58;4.47;;;5.10;99.90;;;-144.05;77.39;125687.94;5055174;28;20067;-80
2023/01/31 09:41:23;;;;;;;21.70;5.10;;;5.10;99.90;;;-144.05;77.39;125687.94;5037902;28;20037;-80
2023/01/31 09:44:10;;;;;;;21.92;4.32;;;5.10;99.90;;;-144.05;78.52;125687.94;5038339;28;20024;-80
2023/01/31 09:46:50;;;;;;;21.63;4.50;;;5.10;99.90;;;-144.05;77.39;125687.94;5056771;28;20040;-78
2023/01/31 09:49:30;;;;;;;22.60;5.30;;;5.20;99.90;;;-144.05;77.46;125687.94;5039797;28;20029;-80
2023/01/31 09:52:02;;;;;;;16.77;3.92;;;5.10;99.90;;;-144.05;77.47;125687.94;5056418;28;20036;-78
2023/01/31 09:54:39;;;;;;;15.70;4.78;;;5.10;99.90;;;-144.05;77.07;125687.94;5048967;28;20033;-77
2023/01/31 09:57:42;;;;;;;19.85;4.60;;;5.20;99.90;;;-144.05;77.82;125687.94;5039737;28;20124;-77
2023/01/31 10:00:25;;;;;;;17.35;4.82;;;5.30;99.90;;;-144.05;77.48;125687.94;5057076;28;20491;-77
2023/01/31 10:03:43;;;;;;;14.23;4.63;;;5.30;99.90;;;-144.05;77.09;125687.94;5056567;28;20044;-78
2023/01/31 10:06:23;;;;;;;16.85;4.03;;;5.40;99.90;;;-144.05;76.50;125687.94;5037861;28;20093;-79
2023/01/31 10:09:01;;;;;;;15.77;3.80;;;5.50;99.90;;;-144.05;75.95;125687.94;5055320;28;20025;-79
2023/01/31 10:11:44;;;;;;;18.77;5.10;;;5.50;99.90;;;-144.05;76.07;125687.94;5054274;28;20108;-79
2023/01/31 10:14:49;;;;;;;15.90;3.67;;;5.50;99.90;;;-144.05;75.90;125687.94;5037350;28;20073;-80
2023/01/31 10:17:37;;;;;;;18.50;4.32;;;5.60;99.90;;;-144.05;76.79;125687.94;5055360;28;20141;-78
2023/01/31 10:20:34;;;;;;;17.67;4.55;;;5.50;99.90;;;-144.05;77.71;125687.94;5037083;28;20029;-79
2023/01/31 10:23:43;;;;;;;16.67;4.20;;;5.50;99.90;;;-144.05;77.50;125687.94;5055366;28;20662;-80
2023/01/31 10:26:24;;;;;;;14.88;3.75;;;5.50;99.90;;;-144.05;77.78;125687.94;5055039;28;20114;-80
2023/01/31 10:29:27;;;;;;;16.63;3.63;;;5.50;99.90;;;-144.05;77.95;125687.94;5055736;28;20108;-78
2023/01/31 10:32:14;;;;;;;17.30;3.67;;;5.50;99.90;;;-144.05;78.10;125687.94;5036363;28;20025;-79